AirNav   Pilot Hours Calculator
 
 1352 users online  

CL52 San Joaquin General Hospital Heliport
Stockton, California, USA

GOING TO STOCKTON?


FAA INFORMATION EFFECTIVE 23 MAY 2019

Location

FAA Identifier: CL52
Lat/Long: 37-53-16.2700N / 121-16-57.6700W
37-53.271167N / 121-16.961167W
37.8878528 / -121.2826861
(estimated)
Elevation: 15 ft. / 5 m (estimated)
Variation: 16E (1985)
From city: 6 miles S of STOCKTON, CA
Time zone: UTC -7 (UTC -8 during Standard Time)
Zip code: 95231

Heliport Operations

Heliport use: Private use, MEDICAL.
Activation date: 10/1985
Control tower: no
ARTCC: OAKLAND CENTER
FSS: RANCHO MURIETA FLIGHT SERVICE STATION
Attendance: CONTINUOUS
Wind indicator: yes
Segmented circle: no
Lights: FOR PERIMETER LGTS CALL 209-982-1975.

Heliport Communications

WX ASOS at SCK (2.1 nm E): PHONE 209-982-4270
WX AWOS-3 at TCY (14 nm SW): 118.375 (209-831-4335)
WX AWOS-3 at C83 (17 nm W): 123.775 (925-634-0906)
  • HOSP. EMERG. FREQ 155.340.

Nearby radio navigation aids

VOR radial/distance  VOR name  Freq  Var
LINr213/17.3LINDEN VOR/DME114.8017E
MODr298/21.9MODESTO VOR/DME114.6017E
SACr142/35.7SACRAMENTO VORTAC115.2017E
CCRr088/37.3CONCORD VOR/DME117.0017E

 
NDB name  Hdg/Dist  Freq  Var  ID
TRACY018/14.020315ETCY - -.-. -.--

Heliport Services

Runway Information

Helipad H1

Dimensions: 95 x 95 ft. / 29 x 29 m
Surface: concrete, in good condition
Runway edge lights: PERI
Latitude: 37-53.271167N
Longitude: 121-16.961167W
Elevation: 15.0 ft.
Traffic pattern: leftleft

Heliport Ownership and Management from official FAA records

Ownership: Publicly-owned
Owner: SAN JOAQUIN GENERAL HOSPITAL
500 WEST HOSPITAL ROAD
FRENCH CAMP, CA 95231
Phone 209-468-6000
Manager: DAVID CULBERSON
500 W. HOSPITAL ROAD
FRENCH CAMP, CA 95231
Phone 209-468-6000

Additional Remarks

FOR CD CTC NORCAL APCH AT 916-361-0516.

Instrument Procedures

There are no published instrument procedures at CL52.

Some nearby airports with instrument procedures:

KSCK - Stockton Metropolitan Airport (2 nm E)
KTCY - Tracy Municipal Airport (14 nm SW)
C83 - Byron Airport (17 nm W)
1O3 - Lodi Airport (19 nm N)
KMOD - Modesto City-County Airport-Harry Sham Field (22 nm SE)
 
Loc | Ops | Rwys | IFR | FBO | Links
Com | Nav | Svcs | Stats | Notes
Area around CL52 (San Joaquin General Hospital Heliport)
 
Road maps at: MapQuest Bing Google
 
Aerial photo
WARNING: Photo may not be current or correct
Aerial photo of CL52 (San Joaquin General Hospital Heliport)
Photo by www.inflightcamera.com
Photo taken 23-Jun-2006

Do you have a better or more recent aerial photo of San Joaquin General Hospital Heliport that you would like to share? If so, please send us your photo.

 
Sectional chart

 
Airport distance calculator
Flying to San Joaquin General Hospital Heliport? Find the distance to fly.

From to CL52

Sunrise and sunset
Times for 18-Jun-2019
 Local
(UTC-7)
 Zulu
(UTC)
Morning civil twilight05:1212:12
Sunrise05:4412:44
Sunset20:2903:29
Evening civil twilight21:0004:00

Current date and time
Zulu (UTC)  18-Jun-2019 13:57:39
Local (UTC-7)  18-Jun-2019 06:57:39
 
METAR
KSCK 
3nm E 
181255Z AUTO 32005KT 10SM CLR 20/13 A2984 RMK AO2 SLP105 T02000133
KTCY 
14nm SW 
181335Z AUTO 00000KT 10SM CLR 20/14 A2986 RMK A01
KC83 
17nm W 
181340Z AUTO 16003KT 10SM CLR 18/14 A2986 RMK AO2
TAF
KSCK 
3nm E 
181133Z 1812/1912 31008KT P6SM FEW250 FM190300 28012KT P6SM SKC
NOTAMs
Click for the latest NOTAMs
NOTAMs are issued by the DoD/FAA and will open in a separate window not controlled by AirNav.

 

 
 

Would you like to see your business listed on this page?

 If your business provides an interesting product or service to pilots, flight crews, aircraft, or users of the San Joaquin General Hospital Heliport, you should consider listing it here.  To start the listing process, click on the button below
 
Add a business
 

Other Pages about San Joaquin General Hospital Heliport

Update a link
 
Copyright © AirNav, LLC. All rights reserved. Privacy Policy  Contact